sensor_id;sensor_type;location;lat;lon;timestamp;temperature;humidity
32446;DHT22;18899;50.748;7.102;2023-04-03T00:01:16;5.80;99.90
32446;DHT22;18899;50.748;7.102;2023-04-03T00:03:42;5.80;99.90
32446;DHT22;18899;50.748;7.102;2023-04-03T00:06:09;5.80;99.90
32446;DHT22;18899;50.748;7.102;2023-04-03T00:08:36;5.60;99.90
32446;DHT22;18899;50.748;7.102;2023-04-03T00:11:03;5.60;99.90
32446;DHT22;18899;50.748;7.102;2023-04-03T00:13:28;5.60;99.90
32446;DHT22;18899;50.748;7.102;2023-04-03T00:15:54;5.70;99.90
32446;DHT22;18899;50.748;7.102;2023-04-03T00:18:20;5.60;99.90
32446;DHT22;18899;50.748;7.102;2023-04-03T00:20:47;5.80;99.90
32446;DHT22;18899;50.748;7.102;2023-04-03T00:23:12;5.90;99.90
32446;DHT22;18899;50.748;7.102;2023-04-03T00:25:38;5.90;99.90
32446;DHT22;18899;50.748;7.102;2023-04-03T00:28:04;5.90;99.90
32446;DHT22;18899;50.748;7.102;2023-04-03T00:30:30;6.00;99.90
32446;DHT22;18899;50.748;7.102;2023-04-03T00:32:56;5.90;99.90
32446;DHT22;18899;50.748;7.102;2023-04-03T00:35:22;6.00;99.90
32446;DHT22;18899;50.748;7.102;2023-04-03T00:37:51;5.90;99.90
32446;DHT22;18899;50.748;7.102;2023-04-03T00:40:17;5.90;99.90
32446;DHT22;18899;50.748;7.102;2023-04-03T00:42:45;5.80;99.90
32446;DHT22;18899;50.748;7.102;2023-04-03T00:47:38;5.90;99.90
32446;DHT22;18899;50.748;7.102;2023-04-03T00:50:05;5.90;99.90
32446;DHT22;18899;50.748;7.102;2023-04-03T00:52:31;5.80;99.90
32446;DHT22;18899;50.748;7.102;2023-04-03T00:55:03;5.70;99.90
32446;DHT22;18899;50.748;7.102;2023-04-03T00:57:30;5.70;99.90
32446;DHT22;18899;50.748;7.102;2023-04-03T01:00:08;5.60;99.90
32446;DHT22;18899;50.748;7.102;2023-04-03T01:02:34;5.70;99.90
32446;DHT22;18899;50.748;7.102;2023-04-03T01:05:00;5.60;99.90
32446;DHT22;18899;50.748;7.102;2023-04-03T01:07:29;5.60;99.90
32446;DHT22;18899;50.748;7.102;2023-04-03T01:10:01;5.60;99.90
32446;DHT22;18899;50.748;7.102;2023-04-03T01:12:33;5.40;99.90
32446;DHT22;18899;50.748;7.102;2023-04-03T01:15:17;5.50;99.90
32446;DHT22;18899;50.748;7.102;2023-04-03T01:17:54;5.60;99.90
32446;DHT22;18899;50.748;7.102;2023-04-03T01:25:27;5.70;99.90
32446;DHT22;18899;50.748;7.102;2023-04-03T01:27:53;5.70;99.90
32446;DHT22;18899;50.748;7.102;2023-04-03T01:30:21;5.60;99.90
32446;DHT22;18899;50.748;7.102;2023-04-03T01:32:49;5.50;99.90
32446;DHT22;18899;50.748;7.102;2023-04-03T01:35:14;5.40;99.90
32446;DHT22;18899;50.748;7.102;2023-04-03T01:37:40;5.40;99.90
32446;DHT22;18899;50.748;7.102;2023-04-03T01:40:06;5.40;99.90
32446;DHT22;18899;50.748;7.102;2023-04-03T01:42:32;5.50;99.90
32446;DHT22;18899;50.748;7.102;2023-04-03T01:44:57;5.40;99.90
32446;DHT22;18899;50.748;7.102;2023-04-03T01:47:23;5.30;99.90
32446;DHT22;18899;50.748;7.102;2023-04-03T01:49:48;5.40;99.90
32446;DHT22;18899;50.748;7.102;2023-04-03T01:52:14;5.30;99.90
32446;DHT22;18899;50.748;7.102;2023-04-03T01:54:39;5.20;99.90
32446;DHT22;18899;50.748;7.102;2023-04-03T01:57:05;5.20;99.90
32446;DHT22;18899;50.748;7.102;2023-04-03T01:59:30;5.00;99.90
32446;DHT22;18899;50.748;7.102;2023-04-03T02:01:56;5.10;99.90
32446;DHT22;18899;50.748;7.102;2023-04-03T02:04:22;5.00;99.90
32446;DHT22;18899;50.748;7.102;2023-04-03T02:06:47;4.90;99.90
32446;DHT22;18899;50.748;7.102;2023-04-03T02:09:13;5.00;99.90
32446;DHT22;18899;50.748;7.102;2023-04-03T02:11:38;5.10;99.90
32446;DHT22;18899;50.748;7.102;2023-04-03T02:14:04;5.10;99.90
32446;DHT22;18899;50.748;7.102;2023-04-03T02:16:30;5.10;99.90
32446;DHT22;18899;50.748;7.102;2023-04-03T02:18:55;5.10;99.90
32446;DHT22;18899;50.748;7.102;2023-04-03T02:21:21;5.10;99.90
32446;DHT22;18899;50.748;7.102;2023-04-03T02:23:47;5.00;99.90
32446;DHT22;18899;50.748;7.102;2023-04-03T02:26:15;5.00;99.90
32446;DHT22;18899;50.748;7.102;2023-04-03T02:28:41;5.00;99.90
32446;DHT22;18899;50.748;7.102;2023-04-03T02:31:07;5.10;99.90
32446;DHT22;18899;50.748;7.102;2023-04-03T02:33:34;5.10;99.90
32446;DHT22;18899;50.748;7.102;2023-04-03T02:36:02;5.10;99.90
32446;DHT22;18899;50.748;7.102;2023-04-03T02:38:28;5.10;99.90
32446;DHT22;18899;50.748;7.102;2023-04-03T02:40:53;5.20;99.90
32446;DHT22;18899;50.748;7.102;2023-04-03T02:43:24;5.20;99.90
32446;DHT22;18899;50.748;7.102;2023-04-03T02:45:49;5.20;99.90
32446;DHT22;18899;50.748;7.102;2023-04-03T02:48:15;5.10;99.90
32446;DHT22;18899;50.748;7.102;2023-04-03T02:50:41;5.00;99.90
32446;DHT22;18899;50.748;7.102;2023-04-03T02:53:07;5.00;99.90
32446;DHT22;18899;50.748;7.102;2023-04-03T02:55:33;5.00;99.90
32446;DHT22;18899;50.748;7.102;2023-04-03T02:57:58;5.00;99.90
32446;DHT22;18899;50.748;7.102;2023-04-03T03:00:24;5.00;99.90
32446;DHT22;18899;50.748;7.102;2023-04-03T03:02:49;4.90;99.90
32446;DHT22;18899;50.748;7.102;2023-04-03T03:05:15;4.90;99.90
32446;DHT22;18899;50.748;7.102;2023-04-03T03:07:40;4.90;99.90
32446;DHT22;18899;50.748;7.102;2023-04-03T03:10:06;4.90;99.90
32446;DHT22;18899;50.748;7.102;2023-04-03T03:12:32;4.80;99.90
32446;DHT22;18899;50.748;7.102;2023-04-03T03:14:57;4.80;99.90
32446;DHT22;18899;50.748;7.102;2023-04-03T03:17:23;4.70;99.90
32446;DHT22;18899;50.748;7.102;2023-04-03T03:19:48;4.60;99.90
32446;DHT22;18899;50.748;7.102;2023-04-03T03:22:14;4.50;99.90
32446;DHT22;18899;50.748;7.102;2023-04-03T03:24:39;4.60;99.90
32446;DHT22;18899;50.748;7.102;2023-04-03T03:27:05;4.40;99.90
32446;DHT22;18899;50.748;7.102;2023-04-03T03:29:30;4.50;99.90
32446;DHT22;18899;50.748;7.102;2023-04-03T03:31:56;4.40;99.90
32446;DHT22;18899;50.748;7.102;2023-04-03T03:34:22;4.30;99.90
32446;DHT22;18899;50.748;7.102;2023-04-03T03:36:47;4.40;99.90
32446;DHT22;18899;50.748;7.102;2023-04-03T03:39:13;4.40;99.90
32446;DHT22;18899;50.748;7.102;2023-04-03T03:41:38;4.40;99.90
32446;DHT22;18899;50.748;7.102;2023-04-03T03:44:04;4.20;99.90
32446;DHT22;18899;50.748;7.102;2023-04-03T03:46:29;4.30;99.90
32446;DHT22;18899;50.748;7.102;2023-04-03T03:48:55;4.20;99.90
32446;DHT22;18899;50.748;7.102;2023-04-03T03:51:20;4.20;99.90
32446;DHT22;18899;50.748;7.102;2023-04-03T03:53:46;4.20;99.90
32446;DHT22;18899;50.748;7.102;2023-04-03T03:56:11;4.10;99.90
32446;DHT22;18899;50.748;7.102;2023-04-03T03:58:37;4.00;99.90
32446;DHT22;18899;50.748;7.102;2023-04-03T04:01:06;4.00;99.90
32446;DHT22;18899;50.748;7.102;2023-04-03T04:03:32;4.20;99.90
32446;DHT22;18899;50.748;7.102;2023-04-03T04:05:58;4.20;99.90
32446;DHT22;18899;50.748;7.102;2023-04-03T04:08:24;3.90;99.90
32446;DHT22;18899;50.748;7.102;2023-04-03T04:10:50;3.70;99.90
32446;DHT22;18899;50.748;7.102;2023-04-03T04:13:15;3.70;99.90
32446;DHT22;18899;50.748;7.102;2023-04-03T04:15:42;3.60;99.90
32446;DHT22;18899;50.748;7.102;2023-04-03T04:18:08;3.70;99.90
32446;DHT22;18899;50.748;7.102;2023-04-03T04:20:33;3.60;99.90
32446;DHT22;18899;50.748;7.102;2023-04-03T04:22:59;3.60;99.90
32446;DHT22;18899;50.748;7.102;2023-04-03T04:25:24;3.60;99.90
32446;DHT22;18899;50.748;7.102;2023-04-03T04:27:50;3.60;99.90
32446;DHT22;18899;50.748;7.102;2023-04-03T04:30:15;3.60;99.90
32446;DHT22;18899;50.748;7.102;2023-04-03T04:32:41;3.60;99.90
32446;DHT22;18899;50.748;7.102;2023-04-03T04:35:07;3.60;99.90
32446;DHT22;18899;50.748;7.102;2023-04-03T04:37:32;3.60;99.90
32446;DHT22;18899;50.748;7.102;2023-04-03T04:39:58;3.60;99.90
32446;DHT22;18899;50.748;7.102;2023-04-03T04:42:24;3.50;99.90
32446;DHT22;18899;50.748;7.102;2023-04-03T04:44:49;3.40;99.90
32446;DHT22;18899;50.748;7.102;2023-04-03T04:47:16;3.50;99.90
32446;DHT22;18899;50.748;7.102;2023-04-03T04:49:41;3.50;99.90
32446;DHT22;18899;50.748;7.102;2023-04-03T04:52:07;3.50;99.90
32446;DHT22;18899;50.748;7.102;2023-04-03T04:54:32;3.50;99.90
32446;DHT22;18899;50.748;7.102;2023-04-03T04:56:58;3.50;99.90
32446;DHT22;18899;50.748;7.102;2023-04-03T04:59:24;3.50;99.90
32446;DHT22;18899;50.748;7.102;2023-04-03T05:01:49;3.50;99.90
32446;DHT22;18899;50.748;7.102;2023-04-03T05:04:15;3.50;99.90
32446;DHT22;18899;50.748;7.102;2023-04-03T05:06:41;3.50;99.90
32446;DHT22;18899;50.748;7.102;2023-04-03T05:09:06;3.60;99.90
32446;DHT22;18899;50.748;7.102;2023-04-03T05:11:32;3.50;99.90
32446;DHT22;18899;50.748;7.102;2023-04-03T05:13:58;3.40;99.90
32446;DHT22;18899;50.748;7.102;2023-04-03T05:16:23;3.40;99.90
32446;DHT22;18899;50.748;7.102;2023-04-03T05:18:49;3.50;99.90
32446;DHT22;18899;50.748;7.102;2023-04-03T05:21:14;3.50;99.90
32446;DHT22;18899;50.748;7.102;2023-04-03T05:23:40;3.60;99.90
32446;DHT22;18899;50.748;7.102;2023-04-03T05:26:05;3.60;99.90
32446;DHT22;18899;50.748;7.102;2023-04-03T05:28:32;3.70;99.90
32446;DHT22;18899;50.748;7.102;2023-04-03T05:30:58;3.80;99.90
32446;DHT22;18899;50.748;7.102;2023-04-03T05:33:24;3.80;99.90
32446;DHT22;18899;50.748;7.102;2023-04-03T05:35:51;4.00;99.90
32446;DHT22;18899;50.748;7.102;2023-04-03T05:38:17;4.10;99.90
32446;DHT22;18899;50.748;7.102;2023-04-03T05:40:43;4.20;99.90
32446;DHT22;18899;50.748;7.102;2023-04-03T05:43:08;4.20;99.90
32446;DHT22;18899;50.748;7.102;2023-04-03T05:45:34;4.20;99.90
32446;DHT22;18899;50.748;7.102;2023-04-03T05:47:59;4.20;99.90
32446;DHT22;18899;50.748;7.102;2023-04-03T05:50:25;4.40;99.90
32446;DHT22;18899;50.748;7.102;2023-04-03T05:52:52;4.60;99.90
32446;DHT22;18899;50.748;7.102;2023-04-03T05:55:20;4.90;99.90
32446;DHT22;18899;50.748;7.102;2023-04-03T05:57:45;5.00;99.90
32446;DHT22;18899;50.748;7.102;2023-04-03T06:00:13;5.20;99.90
32446;DHT22;18899;50.748;7.102;2023-04-03T06:02:40;5.40;99.90
32446;DHT22;18899;50.748;7.102;2023-04-03T06:05:07;5.60;99.90
32446;DHT22;18899;50.748;7.102;2023-04-03T06:07:33;5.60;99.90
32446;DHT22;18899;50.748;7.102;2023-04-03T06:09:59;5.60;99.90
32446;DHT22;18899;50.748;7.102;2023-04-03T06:12:26;5.50;99.90
32446;DHT22;18899;50.748;7.102;2023-04-03T06:14:54;5.70;99.90
32446;DHT22;18899;50.748;7.102;2023-04-03T06:17:19;5.90;99.90
32446;DHT22;18899;50.748;7.102;2023-04-03T06:19:45;6.00;99.90
32446;DHT22;18899;50.748;7.102;2023-04-03T06:22:11;6.00;99.90
32446;DHT22;18899;50.748;7.102;2023-04-03T06:24:37;6.00;99.90
32446;DHT22;18899;50.748;7.102;2023-04-03T06:27:03;6.20;99.90
32446;DHT22;18899;50.748;7.102;2023-04-03T06:29:29;6.40;99.90
32446;DHT22;18899;50.748;7.102;2023-04-03T06:31:55;6.60;99.90
32446;DHT22;18899;50.748;7.102;2023-04-03T06:34:21;6.70;99.90
32446;DHT22;18899;50.748;7.102;2023-04-03T06:36:46;6.90;99.90
32446;DHT22;18899;50.748;7.102;2023-04-03T06:39:17;7.30;99.90
32446;DHT22;18899;50.748;7.102;2023-04-03T06:41:45;7.60;99.90
32446;DHT22;18899;50.748;7.102;2023-04-03T06:44:11;7.70;99.90
32446;DHT22;18899;50.748;7.102;2023-04-03T06:46:38;8.00;99.90
32446;DHT22;18899;50.748;7.102;2023-04-03T06:49:05;9.40;99.60
32446;DHT22;18899;50.748;7.102;2023-04-03T06:51:33;10.80;91.40
32446;DHT22;18899;50.748;7.102;2023-04-03T06:53:59;11.20;85.70
32446;DHT22;18899;50.748;7.102;2023-04-03T06:56:26;11.90;79.20
32446;DHT22;18899;50.748;7.102;2023-04-03T06:58:53;12.30;75.20
32446;DHT22;18899;50.748;7.102;2023-04-03T07:01:20;12.20;74.00
32446;DHT22;18899;50.748;7.102;2023-04-03T07:03:47;13.00;71.10
32446;DHT22;18899;50.748;7.102;2023-04-03T07:06:14;13.00;68.10
32446;DHT22;18899;50.748;7.102;2023-04-03T07:08:41;12.40;72.30
32446;DHT22;18899;50.748;7.102;2023-04-03T07:11:08;13.80;65.90
32446;DHT22;18899;50.748;7.102;2023-04-03T07:13:34;14.70;62.50
32446;DHT22;18899;50.748;7.102;2023-04-03T07:16:00;14.80;59.40
32446;DHT22;18899;50.748;7.102;2023-04-03T07:18:25;14.80;59.00
32446;DHT22;18899;50.748;7.102;2023-04-03T07:20:51;14.10;62.90
32446;DHT22;18899;50.748;7.102;2023-04-03T07:23:18;14.10;62.40
32446;DHT22;18899;50.748;7.102;2023-04-03T07:25:48;14.40;61.60
32446;DHT22;18899;50.748;7.102;2023-04-03T07:28:15;14.70;59.20
32446;DHT22;18899;50.748;7.102;2023-04-03T07:30:49;14.60;60.70
32446;DHT22;18899;50.748;7.102;2023-04-03T07:33:16;15.60;58.60
32446;DHT22;18899;50.748;7.102;2023-04-03T07:35:42;16.10;57.30
32446;DHT22;18899;50.748;7.102;2023-04-03T07:38:09;15.40;58.10
32446;DHT22;18899;50.748;7.102;2023-04-03T07:40:35;15.90;57.00
32446;DHT22;18899;50.748;7.102;2023-04-03T07:43:01;16.50;55.30
32446;DHT22;18899;50.748;7.102;2023-04-03T07:45:27;16.40;54.00
32446;DHT22;18899;50.748;7.102;2023-04-03T07:47:53;16.30;53.10
32446;DHT22;18899;50.748;7.102;2023-04-03T07:50:19;16.40;54.40
32446;DHT22;18899;50.748;7.102;2023-04-03T07:52:45;16.60;53.60
32446;DHT22;18899;50.748;7.102;2023-04-03T07:55:11;15.80;55.10
32446;DHT22;18899;50.748;7.102;2023-04-03T07:57:37;15.60;55.00
32446;DHT22;18899;50.748;7.102;2023-04-03T08:00:06;15.40;56.90
32446;DHT22;18899;50.748;7.102;2023-04-03T08:02:32;16.30;53.40
32446;DHT22;18899;50.748;7.102;2023-04-03T08:04:58;15.60;55.10
32446;DHT22;18899;50.748;7.102;2023-04-03T08:07:24;16.30;52.40
32446;DHT22;18899;50.748;7.102;2023-04-03T08:09:50;15.20;56.10
32446;DHT22;18899;50.748;7.102;2023-04-03T08:12:16;14.90;54.60
32446;DHT22;18899;50.748;7.102;2023-04-03T08:14:41;14.80;55.60
32446;DHT22;18899;50.748;7.102;2023-04-03T08:17:07;14.80;55.50
32446;DHT22;18899;50.748;7.102;2023-04-03T08:19:40;16.00;54.00
32446;DHT22;18899;50.748;7.102;2023-04-03T08:22:06;16.50;53.40
32446;DHT22;18899;50.748;7.102;2023-04-03T08:24:35;17.10;51.00
32446;DHT22;18899;50.748;7.102;2023-04-03T08:27:00;16.90;50.00
32446;DHT22;18899;50.748;7.102;2023-04-03T08:29:26;16.50;50.50
32446;DHT22;18899;50.748;7.102;2023-04-03T08:31:52;16.20;50.80
32446;DHT22;18899;50.748;7.102;2023-04-03T08:34:18;16.10;52.00
32446;DHT22;18899;50.748;7.102;2023-04-03T08:36:45;15.80;51.40
32446;DHT22;18899;50.748;7.102;2023-04-03T08:39:11;16.00;51.30
32446;DHT22;18899;50.748;7.102;2023-04-03T08:41:39;15.00;54.60
32446;DHT22;18899;50.748;7.102;2023-04-03T08:44:25;15.40;53.00
32446;DHT22;18899;50.748;7.102;2023-04-03T08:47:11;15.60;51.50
32446;DHT22;18899;50.748;7.102;2023-04-03T08:49:47;15.70;51.10
32446;DHT22;18899;50.748;7.102;2023-04-03T08:52:42;15.40;53.20
32446;DHT22;18899;50.748;7.102;2023-04-03T08:55:29;14.90;54.50
32446;DHT22;18899;50.748;7.102;2023-04-03T08:58:01;15.70;51.80
32446;DHT22;18899;50.748;7.102;2023-04-03T09:00:37;15.70;53.20
32446;DHT22;18899;50.748;7.102;2023-04-03T09:03:12;15.10;54.90
32446;DHT22;18899;50.748;7.102;2023-04-03T09:08:23;16.10;51.20
32446;DHT22;18899;50.748;7.102;2023-04-03T09:13:37;15.50;52.90
32446;DHT22;18899;50.748;7.102;2023-04-03T09:19:20;16.20;51.40
32446;DHT22;18899;50.748;7.102;2023-04-03T09:21:47;16.30;51.20
32446;DHT22;18899;50.748;7.102;2023-04-03T09:24:15;16.70;49.80
32446;DHT22;18899;50.748;7.102;2023-04-03T09:26:46;16.40;49.50
32446;DHT22;18899;50.748;7.102;2023-04-03T09:29:22;16.50;51.40
32446;DHT22;18899;50.748;7.102;2023-04-03T09:31:50;16.70;50.00
32446;DHT22;18899;50.748;7.102;2023-04-03T09:34:28;15.70;51.70
32446;DHT22;18899;50.748;7.102;2023-04-03T09:36:57;17.00;49.00
32446;DHT22;18899;50.748;7.102;2023-04-03T09:39:28;16.90;48.40
32446;DHT22;18899;50.748;7.102;2023-04-03T09:42:11;16.80;48.00
32446;DHT22;18899;50.748;7.102;2023-04-03T09:44:40;17.10;48.30
32446;DHT22;18899;50.748;7.102;2023-04-03T09:47:27;17.20;47.70
32446;DHT22;18899;50.748;7.102;2023-04-03T09:52:38;16.80;48.90
32446;DHT22;18899;50.748;7.102;2023-04-03T09:55:10;17.20;49.40
32446;DHT22;18899;50.748;7.102;2023-04-03T09:57:39;17.30;46.90
32446;DHT22;18899;50.748;7.102;2023-04-03T10:00:05;17.50;48.80
32446;DHT22;18899;50.748;7.102;2023-04-03T10:02:39;17.80;44.70
32446;DHT22;18899;50.748;7.102;2023-04-03T10:05:30;17.30;46.40
32446;DHT22;18899;50.748;7.102;2023-04-03T10:10:42;16.20;46.90
32446;DHT22;18899;50.748;7.102;2023-04-03T10:13:19;16.40;46.70
32446;DHT22;18899;50.748;7.102;2023-04-03T10:15:51;15.90;47.60
32446;DHT22;18899;50.748;7.102;2023-04-03T10:20:59;16.20;46.40
32446;DHT22;18899;50.748;7.102;2023-04-03T10:26:51;15.50;48.90
32446;DHT22;18899;50.748;7.102;2023-04-03T10:29:42;15.50;46.40
32446;DHT22;18899;50.748;7.102;2023-04-03T10:38:08;13.10;47.80
32446;DHT22;18899;50.748;7.102;2023-04-03T10:51:42;9.50;60.20
32446;DHT22;18899;50.748;7.102;2023-04-03T10:57:11;9.00;64.00
32446;DHT22;18899;50.748;7.102;2023-04-03T10:59:50;9.30;59.50
32446;DHT22;18899;50.748;7.102;2023-04-03T11:02:41;9.30;60.30
32446;DHT22;18899;50.748;7.102;2023-04-03T11:05:31;9.10;60.50
32446;DHT22;18899;50.748;7.102;2023-04-03T11:08:04;8.90;60.70
32446;DHT22;18899;50.748;7.102;2023-04-03T11:10:42;8.90;58.60
32446;DHT22;18899;50.748;7.102;2023-04-03T11:13:22;9.00;57.10
32446;DHT22;18899;50.748;7.102;2023-04-03T11:15:51;8.90;60.50
32446;DHT22;18899;50.748;7.102;2023-04-03T11:18:27;8.90;61.40
32446;DHT22;18899;50.748;7.102;2023-04-03T11:21:24;8.80;61.80
32446;DHT22;18899;50.748;7.102;2023-04-03T11:23:54;8.80;61.90
32446;DHT22;18899;50.748;7.102;2023-04-03T11:26:23;8.90;58.20
32446;DHT22;18899;50.748;7.102;2023-04-03T11:28:58;8.90;59.80
32446;DHT22;18899;50.748;7.102;2023-04-03T11:37:05;9.10;57.80
32446;DHT22;18899;50.748;7.102;2023-04-03T11:39:34;9.10;57.70
32446;DHT22;18899;50.748;7.102;2023-04-03T11:42:31;9.00;62.40
32446;DHT22;18899;50.748;7.102;2023-04-03T11:47:48;8.80;58.10
32446;DHT22;18899;50.748;7.102;2023-04-03T11:50:43;8.80;57.00
32446;DHT22;18899;50.748;7.102;2023-04-03T11:58:22;9.20;57.30
32446;DHT22;18899;50.748;7.102;2023-04-03T12:00:51;9.30;56.80
32446;DHT22;18899;50.748;7.102;2023-04-03T12:11:28;9.10;57.20
32446;DHT22;18899;50.748;7.102;2023-04-03T12:19:42;9.30;58.30
32446;DHT22;18899;50.748;7.102;2023-04-03T12:34:43;9.40;58.30
32446;DHT22;18899;50.748;7.102;2023-04-03T12:40:31;9.10;59.00
32446;DHT22;18899;50.748;7.102;2023-04-03T12:45:51;9.30;56.80
32446;DHT22;18899;50.748;7.102;2023-04-03T12:48:25;9.40;55.80
32446;DHT22;18899;50.748;7.102;2023-04-03T12:50:51;9.40;57.10
32446;DHT22;18899;50.748;7.102;2023-04-03T12:53:21;9.40;56.90
32446;DHT22;18899;50.748;7.102;2023-04-03T12:55:53;9.40;56.80
32446;DHT22;18899;50.748;7.102;2023-04-03T12:58:27;9.40;56.00
32446;DHT22;18899;50.748;7.102;2023-04-03T13:01:14;9.40;57.90
32446;DHT22;18899;50.748;7.102;2023-04-03T13:03:43;9.30;57.10
32446;DHT22;18899;50.748;7.102;2023-04-03T13:06:27;9.50;54.40
32446;DHT22;18899;50.748;7.102;2023-04-03T13:08:58;9.60;56.90
32446;DHT22;18899;50.748;7.102;2023-04-03T13:11:27;9.60;54.30
32446;DHT22;18899;50.748;7.102;2023-04-03T13:13:58;9.60;57.60
32446;DHT22;18899;50.748;7.102;2023-04-03T13:16:24;9.60;54.50
32446;DHT22;18899;50.748;7.102;2023-04-03T13:18:53;9.60;55.10
32446;DHT22;18899;50.748;7.102;2023-04-03T13:21:22;9.60;55.10
32446;DHT22;18899;50.748;7.102;2023-04-03T13:23:51;9.70;54.50
32446;DHT22;18899;50.748;7.102;2023-04-03T13:26:20;9.70;57.40
32446;DHT22;18899;50.748;7.102;2023-04-03T13:28:47;9.80;59.50
32446;DHT22;18899;50.748;7.102;2023-04-03T13:33:54;9.50;59.00
32446;DHT22;18899;50.748;7.102;2023-04-03T13:36:35;9.60;56.10
32446;DHT22;18899;50.748;7.102;2023-04-03T13:41:40;9.60;58.10
32446;DHT22;18899;50.748;7.102;2023-04-03T13:44:35;9.70;55.70
32446;DHT22;18899;50.748;7.102;2023-04-03T13:47:16;9.70;56.30
32446;DHT22;18899;50.748;7.102;2023-04-03T13:49:59;9.70;55.80
32446;DHT22;18899;50.748;7.102;2023-04-03T13:52:31;9.70;56.60
32446;DHT22;18899;50.748;7.102;2023-04-03T13:55:20;9.70;54.70
32446;DHT22;18899;50.748;7.102;2023-04-03T14:02:59;9.60;55.20
32446;DHT22;18899;50.748;7.102;2023-04-03T14:05:25;9.60;58.00
32446;DHT22;18899;50.748;7.102;2023-04-03T14:07:55;9.60;57.50
32446;DHT22;18899;50.748;7.102;2023-04-03T14:10:21;9.60;57.40
32446;DHT22;18899;50.748;7.102;2023-04-03T14:12:47;9.80;60.30
32446;DHT22;18899;50.748;7.102;2023-04-03T14:15:23;9.80;56.70
32446;DHT22;18899;50.748;7.102;2023-04-03T14:17:52;9.80;57.20
32446;DHT22;18899;50.748;7.102;2023-04-03T14:20:20;9.80;57.40
32446;DHT22;18899;50.748;7.102;2023-04-03T14:22:47;9.80;58.10
32446;DHT22;18899;50.748;7.102;2023-04-03T14:25:12;9.90;56.40
32446;DHT22;18899;50.748;7.102;2023-04-03T14:27:41;9.90;58.50
32446;DHT22;18899;50.748;7.102;2023-04-03T14:30:12;9.90;57.30
32446;DHT22;18899;50.748;7.102;2023-04-03T14:32:39;9.90;58.60
32446;DHT22;18899;50.748;7.102;2023-04-03T14:35:04;9.90;57.10
32446;DHT22;18899;50.748;7.102;2023-04-03T14:37:31;9.80;59.40
32446;DHT22;18899;50.748;7.102;2023-04-03T14:39:59;9.80;56.20
32446;DHT22;18899;50.748;7.102;2023-04-03T14:42:32;9.70;56.60
32446;DHT22;18899;50.748;7.102;2023-04-03T14:44:59;9.70;57.80
32446;DHT22;18899;50.748;7.102;2023-04-03T14:47:27;9.70;59.00
32446;DHT22;18899;50.748;7.102;2023-04-03T14:49:53;9.70;57.10
32446;DHT22;18899;50.748;7.102;2023-04-03T14:52:32;9.70;58.90
32446;DHT22;18899;50.748;7.102;2023-04-03T14:54:58;9.60;59.40
32446;DHT22;18899;50.748;7.102;2023-04-03T14:57:25;9.60;58.80
32446;DHT22;18899;50.748;7.102;2023-04-03T14:59:52;9.70;58.00
32446;DHT22;18899;50.748;7.102;2023-04-03T15:02:24;9.80;57.90
32446;DHT22;18899;50.748;7.102;2023-04-03T15:04:50;9.90;57.70
32446;DHT22;18899;50.748;7.102;2023-04-03T15:07:15;9.90;56.30
32446;DHT22;18899;50.748;7.102;2023-04-03T15:09:41;9.90;57.60
32446;DHT22;18899;50.748;7.102;2023-04-03T15:12:08;9.90;56.60
32446;DHT22;18899;50.748;7.102;2023-04-03T15:14:34;10.00;58.60
32446;DHT22;18899;50.748;7.102;2023-04-03T15:16:59;10.00;57.00
32446;DHT22;18899;50.748;7.102;2023-04-03T15:19:25;9.90;56.40
32446;DHT22;18899;50.748;7.102;2023-04-03T15:21:50;9.90;58.50
32446;DHT22;18899;50.748;7.102;2023-04-03T15:24:16;9.90;58.10
32446;DHT22;18899;50.748;7.102;2023-04-03T15:26:42;9.90;59.20
32446;DHT22;18899;50.748;7.102;2023-04-03T15:29:07;9.90;58.40
32446;DHT22;18899;50.748;7.102;2023-04-03T15:31:33;9.80;57.90
32446;DHT22;18899;50.748;7.102;2023-04-03T15:33:59;9.80;57.10
32446;DHT22;18899;50.748;7.102;2023-04-03T15:36:24;9.90;57.00
32446;DHT22;18899;50.748;7.102;2023-04-03T15:38:50;9.80;59.20
32446;DHT22;18899;50.748;7.102;2023-04-03T15:41:15;9.90;58.30
32446;DHT22;18899;50.748;7.102;2023-04-03T15:43:41;9.90;56.30
32446;DHT22;18899;50.748;7.102;2023-04-03T15:46:07;9.90;55.80
32446;DHT22;18899;50.748;7.102;2023-04-03T15:48:33;10.00;56.60
32446;DHT22;18899;50.748;7.102;2023-04-03T15:51:00;9.90;61.50
32446;DHT22;18899;50.748;7.102;2023-04-03T15:53:25;9.80;57.90
32446;DHT22;18899;50.748;7.102;2023-04-03T15:55:51;9.80;56.00
32446;DHT22;18899;50.748;7.102;2023-04-03T15:58:17;9.80;55.00
32446;DHT22;18899;50.748;7.102;2023-04-03T16:00:43;9.80;55.50
32446;DHT22;18899;50.748;7.102;2023-04-03T16:03:20;9.80;57.40
32446;DHT22;18899;50.748;7.102;2023-04-03T16:05:46;9.60;58.70
32446;DHT22;18899;50.748;7.102;2023-04-03T16:08:13;9.70;56.20
32446;DHT22;18899;50.748;7.102;2023-04-03T16:10:39;9.50;58.70
32446;DHT22;18899;50.748;7.102;2023-04-03T16:13:05;9.70;57.80
32446;DHT22;18899;50.748;7.102;2023-04-03T16:15:32;9.70;57.40
32446;DHT22;18899;50.748;7.102;2023-04-03T16:17:58;9.70;59.30
32446;DHT22;18899;50.748;7.102;2023-04-03T16:20:25;9.60;57.60
32446;DHT22;18899;50.748;7.102;2023-04-03T16:22:51;9.70;58.30
32446;DHT22;18899;50.748;7.102;2023-04-03T16:25:17;9.70;57.50
32446;DHT22;18899;50.748;7.102;2023-04-03T16:27:43;9.70;56.90
32446;DHT22;18899;50.748;7.102;2023-04-03T16:30:10;9.60;58.40
32446;DHT22;18899;50.748;7.102;2023-04-03T16:32:37;9.70;57.30
32446;DHT22;18899;50.748;7.102;2023-04-03T16:35:04;9.70;57.90
32446;DHT22;18899;50.748;7.102;2023-04-03T16:37:30;9.60;56.70
32446;DHT22;18899;50.748;7.102;2023-04-03T16:39:55;9.60;57.80
32446;DHT22;18899;50.748;7.102;2023-04-03T16:42:22;9.60;56.90
32446;DHT22;18899;50.748;7.102;2023-04-03T16:44:47;9.50;58.20
32446;DHT22;18899;50.748;7.102;2023-04-03T16:47:13;9.50;57.60
32446;DHT22;18899;50.748;7.102;2023-04-03T16:49:39;9.50;57.70
32446;DHT22;18899;50.748;7.102;2023-04-03T16:52:05;9.40;59.60
32446;DHT22;18899;50.748;7.102;2023-04-03T16:54:31;9.40;58.80
32446;DHT22;18899;50.748;7.102;2023-04-03T16:56:57;9.40;60.70
32446;DHT22;18899;50.748;7.102;2023-04-03T16:59:22;9.40;59.80
32446;DHT22;18899;50.748;7.102;2023-04-03T17:01:48;9.40;58.20
32446;DHT22;18899;50.748;7.102;2023-04-03T17:04:14;9.30;59.20
32446;DHT22;18899;50.748;7.102;2023-04-03T17:06:39;9.30;60.50
32446;DHT22;18899;50.748;7.102;2023-04-03T17:09:06;9.20;60.20
32446;DHT22;18899;50.748;7.102;2023-04-03T17:11:32;9.20;59.60
32446;DHT22;18899;50.748;7.102;2023-04-03T17:13:58;9.30;59.20
32446;DHT22;18899;50.748;7.102;2023-04-03T17:16:24;9.30;59.80
32446;DHT22;18899;50.748;7.102;2023-04-03T17:18:52;9.30;59.60
32446;DHT22;18899;50.748;7.102;2023-04-03T17:21:19;9.30;60.00
32446;DHT22;18899;50.748;7.102;2023-04-03T17:23:47;9.20;59.50
32446;DHT22;18899;50.748;7.102;2023-04-03T17:26:14;9.00;58.90
32446;DHT22;18899;50.748;7.102;2023-04-03T17:28:40;9.10;59.30
32446;DHT22;18899;50.748;7.102;2023-04-03T17:31:06;9.00;58.30
32446;DHT22;18899;50.748;7.102;2023-04-03T17:33:32;9.10;58.00